sensor_id;sensor_type;location;lat;lon;timestamp;P1;durP1;ratioP1;P2;durP2;ratioP2
66581;SDS011;53438;48.898;2.308;2024-03-25T00:00:30;9.93;;;2.00;;
66581;SDS011;53438;48.898;2.308;2024-03-25T00:02:56;8.67;;;2.97;;
66581;SDS011;53438;48.898;2.308;2024-03-25T00:05:21;13.93;;;3.07;;
66581;SDS011;53438;48.898;2.308;2024-03-25T00:07:50;8.32;;;2.17;;
66581;SDS011;53438;48.898;2.308;2024-03-25T00:10:16;9.75;;;2.92;;
66581;SDS011;53438;48.898;2.308;2024-03-25T00:12:42;10.27;;;3.43;;
66581;SDS011;53438;48.898;2.308;2024-03-25T00:15:08;8.20;;;2.90;;
66581;SDS011;53438;48.898;2.308;2024-03-25T00:17:34;9.93;;;2.13;;
66581;SDS011;53438;48.898;2.308;2024-03-25T00:19:59;11.20;;;2.70;;
66581;SDS011;53438;48.898;2.308;2024-03-25T00:22:25;8.73;;;3.05;;
66581;SDS011;53438;48.898;2.308;2024-03-25T00:24:50;7.33;;;2.77;;
66581;SDS011;53438;48.898;2.308;2024-03-25T00:27:16;11.73;;;2.90;;
66581;SDS011;53438;48.898;2.308;2024-03-25T00:29:42;7.40;;;2.13;;
66581;SDS011;53438;48.898;2.308;2024-03-25T00:32:09;11.70;;;2.72;;
66581;SDS011;53438;48.898;2.308;2024-03-25T00:34:35;9.18;;;2.88;;
66581;SDS011;53438;48.898;2.308;2024-03-25T00:37:01;6.68;;;2.80;;
66581;SDS011;53438;48.898;2.308;2024-03-25T00:39:27;7.55;;;2.55;;
66581;SDS011;53438;48.898;2.308;2024-03-25T00:41:54;12.67;;;2.80;;
66581;SDS011;53438;48.898;2.308;2024-03-25T00:44:19;8.75;;;2.08;;
66581;SDS011;53438;48.898;2.308;2024-03-25T00:46:45;10.45;;;3.30;;
66581;SDS011;53438;48.898;2.308;2024-03-25T00:49:11;9.50;;;3.47;;
66581;SDS011;53438;48.898;2.308;2024-03-25T00:51:37;9.75;;;3.17;;
66581;SDS011;53438;48.898;2.308;2024-03-25T00:54:02;7.40;;;2.60;;
66581;SDS011;53438;48.898;2.308;2024-03-25T00:56:28;8.75;;;2.17;;
66581;SDS011;53438;48.898;2.308;2024-03-25T00:58:54;9.63;;;2.37;;
66581;SDS011;53438;48.898;2.308;2024-03-25T04:02:39;5.82;;;2.45;;
66581;SDS011;53438;48.898;2.308;2024-03-25T04:05:04;12.00;;;2.93;;
66581;SDS011;53438;48.898;2.308;2024-03-25T04:07:31;11.38;;;3.15;;
66581;SDS011;53438;48.898;2.308;2024-03-25T04:09:57;6.67;;;2.53;;
66581;SDS011;53438;48.898;2.308;2024-03-25T04:12:23;8.63;;;2.67;;
66581;SDS011;53438;48.898;2.308;2024-03-25T04:14:48;9.50;;;3.37;;
66581;SDS011;53438;48.898;2.308;2024-03-25T04:17:19;8.00;;;3.35;;
66581;SDS011;53438;48.898;2.308;2024-03-25T04:19:45;9.30;;;3.50;;
66581;SDS011;53438;48.898;2.308;2024-03-25T04:22:10;11.53;;;4.20;;
66581;SDS011;53438;48.898;2.308;2024-03-25T04:24:36;9.10;;;4.20;;
66581;SDS011;53438;48.898;2.308;2024-03-25T04:27:01;9.73;;;3.47;;
66581;SDS011;53438;48.898;2.308;2024-03-25T04:29:26;11.20;;;3.67;;
66581;SDS011;53438;48.898;2.308;2024-03-25T04:31:52;14.13;;;4.10;;
66581;SDS011;53438;48.898;2.308;2024-03-25T04:34:17;9.90;;;4.50;;
66581;SDS011;53438;48.898;2.308;2024-03-25T04:36:42;13.63;;;4.33;;
66581;SDS011;53438;48.898;2.308;2024-03-25T04:39:07;12.27;;;4.63;;
66581;SDS011;53438;48.898;2.308;2024-03-25T04:41:33;13.57;;;4.90;;
66581;SDS011;53438;48.898;2.308;2024-03-25T04:43:58;11.60;;;4.30;;
66581;SDS011;53438;48.898;2.308;2024-03-25T04:46:24;13.03;;;4.10;;
66581;SDS011;53438;48.898;2.308;2024-03-25T04:48:49;11.13;;;4.93;;
66581;SDS011;53438;48.898;2.308;2024-03-25T04:51:14;10.97;;;4.70;;
66581;SDS011;53438;48.898;2.308;2024-03-25T04:53:40;9.03;;;4.73;;
66581;SDS011;53438;48.898;2.308;2024-03-25T04:56:05;13.20;;;4.93;;
66581;SDS011;53438;48.898;2.308;2024-03-25T04:58:31;12.10;;;4.78;;
66581;SDS011;53438;48.898;2.308;2024-03-25T05:00:56;10.95;;;4.60;;
66581;SDS011;53438;48.898;2.308;2024-03-25T05:03:22;15.43;;;4.37;;
66581;SDS011;53438;48.898;2.308;2024-03-25T05:05:48;13.52;;;4.70;;
66581;SDS011;53438;48.898;2.308;2024-03-25T05:08:13;11.77;;;4.67;;
66581;SDS011;53438;48.898;2.308;2024-03-25T05:10:38;9.93;;;4.40;;
66581;SDS011;53438;48.898;2.308;2024-03-25T05:13:04;14.97;;;4.47;;
66581;SDS011;53438;48.898;2.308;2024-03-25T05:15:30;12.07;;;4.43;;
66581;SDS011;53438;48.898;2.308;2024-03-25T05:17:55;13.27;;;4.03;;
66581;SDS011;53438;48.898;2.308;2024-03-25T05:20:21;11.33;;;4.20;;
66581;SDS011;53438;48.898;2.308;2024-03-25T05:22:46;9.68;;;3.90;;
66581;SDS011;53438;48.898;2.308;2024-03-25T05:25:12;8.67;;;3.53;;
66581;SDS011;53438;48.898;2.308;2024-03-25T05:27:37;8.77;;;3.90;;
66581;SDS011;53438;48.898;2.308;2024-03-25T05:30:03;10.70;;;4.13;;
66581;SDS011;53438;48.898;2.308;2024-03-25T05:32:28;9.02;;;4.25;;
66581;SDS011;53438;48.898;2.308;2024-03-25T05:34:53;13.63;;;3.90;;
66581;SDS011;53438;48.898;2.308;2024-03-25T05:37:19;12.37;;;3.90;;
66581;SDS011;53438;48.898;2.308;2024-03-25T05:39:44;11.07;;;3.73;;
66581;SDS011;53438;48.898;2.308;2024-03-25T05:42:09;12.70;;;5.80;;
66581;SDS011;53438;48.898;2.308;2024-03-25T05:44:35;7.63;;;3.53;;
66581;SDS011;53438;48.898;2.308;2024-03-25T05:47:00;11.80;;;3.50;;
66581;SDS011;53438;48.898;2.308;2024-03-25T05:49:25;9.40;;;3.40;;
66581;SDS011;53438;48.898;2.308;2024-03-25T05:51:51;10.07;;;3.43;;
66581;SDS011;53438;48.898;2.308;2024-03-25T05:54:16;10.33;;;2.90;;
66581;SDS011;53438;48.898;2.308;2024-03-25T05:56:41;7.95;;;2.75;;
66581;SDS011;53438;48.898;2.308;2024-03-25T05:59:07;11.17;;;3.43;;
66581;SDS011;53438;48.898;2.308;2024-03-25T06:01:33;8.70;;;3.47;;
66581;SDS011;53438;48.898;2.308;2024-03-25T06:03:59;8.70;;;3.47;;
66581;SDS011;53438;48.898;2.308;2024-03-25T06:06:24;13.23;;;4.37;;
66581;SDS011;53438;48.898;2.308;2024-03-25T06:08:50;8.73;;;2.90;;
66581;SDS011;53438;48.898;2.308;2024-03-25T06:11:15;11.43;;;3.75;;
66581;SDS011;53438;48.898;2.308;2024-03-25T06:13:41;12.20;;;4.00;;
66581;SDS011;53438;48.898;2.308;2024-03-25T06:16:06;10.20;;;3.73;;
66581;SDS011;53438;48.898;2.308;2024-03-25T06:18:31;8.93;;;3.93;;
66581;SDS011;53438;48.898;2.308;2024-03-25T06:20:57;17.50;;;5.47;;
66581;SDS011;53438;48.898;2.308;2024-03-25T06:23:26;15.03;;;4.67;;
66581;SDS011;53438;48.898;2.308;2024-03-25T06:25:53;9.98;;;3.47;;
66581;SDS011;53438;48.898;2.308;2024-03-25T06:28:19;14.15;;;4.70;;
66581;SDS011;53438;48.898;2.308;2024-03-25T06:30:46;12.13;;;7.50;;
66581;SDS011;53438;48.898;2.308;2024-03-25T06:33:30;13.77;;;4.07;;
66581;SDS011;53438;48.898;2.308;2024-03-25T06:36:14;10.57;;;3.78;;
66581;SDS011;53438;48.898;2.308;2024-03-25T06:38:39;9.57;;;4.43;;
66581;SDS011;53438;48.898;2.308;2024-03-25T06:41:04;12.43;;;4.00;;
66581;SDS011;53438;48.898;2.308;2024-03-25T06:43:30;15.10;;;4.07;;
66581;SDS011;53438;48.898;2.308;2024-03-25T06:45:55;10.68;;;4.00;;
66581;SDS011;53438;48.898;2.308;2024-03-25T06:48:20;11.23;;;3.95;;
66581;SDS011;53438;48.898;2.308;2024-03-25T06:50:52;9.47;;;3.57;;
66581;SDS011;53438;48.898;2.308;2024-03-25T06:53:18;10.80;;;4.43;;
66581;SDS011;53438;48.898;2.308;2024-03-25T06:55:50;12.68;;;4.18;;
66581;SDS011;53438;48.898;2.308;2024-03-25T06:58:25;7.60;;;3.33;;
66581;SDS011;53438;48.898;2.308;2024-03-25T07:00:52;14.88;;;3.97;;
66581;SDS011;53438;48.898;2.308;2024-03-25T07:03:17;10.50;;;3.90;;
66581;SDS011;53438;48.898;2.308;2024-03-25T07:05:47;11.23;;;3.67;;
66581;SDS011;53438;48.898;2.308;2024-03-25T07:08:13;9.73;;;3.63;;
66581;SDS011;53438;48.898;2.308;2024-03-25T07:10:43;9.80;;;3.83;;
66581;SDS011;53438;48.898;2.308;2024-03-25T07:13:08;10.82;;;3.65;;
66581;SDS011;53438;48.898;2.308;2024-03-25T07:15:34;12.83;;;3.83;;
66581;SDS011;53438;48.898;2.308;2024-03-25T07:17:59;12.25;;;3.58;;
66581;SDS011;53438;48.898;2.308;2024-03-25T07:20:25;13.70;;;4.10;;
66581;SDS011;53438;48.898;2.308;2024-03-25T07:22:51;10.15;;;3.67;;
66581;SDS011;53438;48.898;2.308;2024-03-25T07:25:20;10.68;;;3.72;;
66581;SDS011;53438;48.898;2.308;2024-03-25T07:27:46;15.60;;;4.40;;
66581;SDS011;53438;48.898;2.308;2024-03-25T07:30:11;12.00;;;4.07;;
66581;SDS011;53438;48.898;2.308;2024-03-25T07:32:36;14.17;;;4.40;;
66581;SDS011;53438;48.898;2.308;2024-03-25T07:35:02;16.48;;;4.43;;
66581;SDS011;53438;48.898;2.308;2024-03-25T07:37:29;14.77;;;3.63;;
66581;SDS011;53438;48.898;2.308;2024-03-25T07:39:55;10.38;;;4.03;;
66581;SDS011;53438;48.898;2.308;2024-03-25T07:42:21;7.50;;;4.20;;
66581;SDS011;53438;48.898;2.308;2024-03-25T07:44:46;12.07;;;3.63;;
66581;SDS011;53438;48.898;2.308;2024-03-25T07:47:11;8.73;;;3.42;;
66581;SDS011;53438;48.898;2.308;2024-03-25T07:49:37;9.07;;;3.50;;
66581;SDS011;53438;48.898;2.308;2024-03-25T07:52:05;8.90;;;3.60;;
66581;SDS011;53438;48.898;2.308;2024-03-25T07:54:30;6.90;;;2.90;;
66581;SDS011;53438;48.898;2.308;2024-03-25T07:56:56;7.80;;;3.10;;
66581;SDS011;53438;48.898;2.308;2024-03-25T07:59:21;11.07;;;3.50;;
66581;SDS011;53438;48.898;2.308;2024-03-25T08:01:46;7.10;;;2.95;;
66581;SDS011;53438;48.898;2.308;2024-03-25T08:04:12;10.63;;;3.00;;
66581;SDS011;53438;48.898;2.308;2024-03-25T08:06:37;11.23;;;3.80;;
66581;SDS011;53438;48.898;2.308;2024-03-25T08:09:03;13.40;;;2.73;;
66581;SDS011;53438;48.898;2.308;2024-03-25T08:11:31;7.45;;;3.05;;
66581;SDS011;53438;48.898;2.308;2024-03-25T08:13:57;7.18;;;3.40;;
66581;SDS011;53438;48.898;2.308;2024-03-25T08:16:22;9.83;;;3.40;;
66581;SDS011;53438;48.898;2.308;2024-03-25T08:18:48;12.60;;;3.23;;
66581;SDS011;53438;48.898;2.308;2024-03-25T08:21:13;8.57;;;2.70;;
66581;SDS011;53438;48.898;2.308;2024-03-25T08:23:39;10.05;;;3.25;;
66581;SDS011;53438;48.898;2.308;2024-03-25T08:26:05;8.10;;;2.70;;
66581;SDS011;53438;48.898;2.308;2024-03-25T08:28:32;11.20;;;3.00;;
66581;SDS011;53438;48.898;2.308;2024-03-25T08:30:57;8.15;;;3.72;;
66581;SDS011;53438;48.898;2.308;2024-03-25T08:33:23;9.07;;;3.40;;
66581;SDS011;53438;48.898;2.308;2024-03-25T08:35:48;13.53;;;3.73;;
66581;SDS011;53438;48.898;2.308;2024-03-25T08:38:13;9.47;;;3.03;;
66581;SDS011;53438;48.898;2.308;2024-03-25T08:40:39;8.87;;;3.30;;
66581;SDS011;53438;48.898;2.308;2024-03-25T08:43:05;9.25;;;3.78;;
66581;SDS011;53438;48.898;2.308;2024-03-25T08:45:31;5.88;;;3.10;;
66581;SDS011;53438;48.898;2.308;2024-03-25T08:47:57;8.37;;;3.47;;
66581;SDS011;53438;48.898;2.308;2024-03-25T08:50:22;6.17;;;2.73;;
66581;SDS011;53438;48.898;2.308;2024-03-25T08:52:47;9.03;;;2.40;;
66581;SDS011;53438;48.898;2.308;2024-03-25T08:55:13;8.53;;;2.93;;
66581;SDS011;53438;48.898;2.308;2024-03-25T08:57:38;8.10;;;2.85;;
66581;SDS011;53438;48.898;2.308;2024-03-25T09:00:04;8.90;;;3.00;;
66581;SDS011;53438;48.898;2.308;2024-03-25T09:02:30;10.35;;;3.17;;
66581;SDS011;53438;48.898;2.308;2024-03-25T09:04:55;6.37;;;2.93;;
66581;SDS011;53438;48.898;2.308;2024-03-25T09:07:21;6.97;;;3.00;;
66581;SDS011;53438;48.898;2.308;2024-03-25T09:09:46;10.50;;;3.88;;
66581;SDS011;53438;48.898;2.308;2024-03-25T09:12:30;8.40;;;2.67;;
66581;SDS011;53438;48.898;2.308;2024-03-25T09:14:56;9.00;;;2.92;;
66581;SDS011;53438;48.898;2.308;2024-03-25T09:17:21;10.10;;;3.23;;
66581;SDS011;53438;48.898;2.308;2024-03-25T09:19:49;9.02;;;3.20;;
66581;SDS011;53438;48.898;2.308;2024-03-25T09:22:15;9.40;;;3.33;;
66581;SDS011;53438;48.898;2.308;2024-03-25T09:24:40;9.80;;;3.20;;
66581;SDS011;53438;48.898;2.308;2024-03-25T09:27:06;11.37;;;3.97;;
66581;SDS011;53438;48.898;2.308;2024-03-25T09:29:31;7.13;;;2.92;;
66581;SDS011;53438;48.898;2.308;2024-03-25T09:31:56;9.48;;;3.95;;
66581;SDS011;53438;48.898;2.308;2024-03-25T09:34:22;8.07;;;2.83;;
66581;SDS011;53438;48.898;2.308;2024-03-25T09:36:47;9.47;;;3.20;;
66581;SDS011;53438;48.898;2.308;2024-03-25T09:39:12;10.53;;;3.30;;
66581;SDS011;53438;48.898;2.308;2024-03-25T09:41:38;7.67;;;3.23;;
66581;SDS011;53438;48.898;2.308;2024-03-25T09:44:07;7.18;;;3.00;;
66581;SDS011;53438;48.898;2.308;2024-03-25T09:46:34;8.43;;;3.08;;
66581;SDS011;53438;48.898;2.308;2024-03-25T09:49:01;5.93;;;2.60;;
66581;SDS011;53438;48.898;2.308;2024-03-25T09:51:30;7.60;;;2.50;;
66581;SDS011;53438;48.898;2.308;2024-03-25T09:53:56;10.60;;;2.67;;
66581;SDS011;53438;48.898;2.308;2024-03-25T09:56:21;6.68;;;3.17;;
66581;SDS011;53438;48.898;2.308;2024-03-25T09:58:47;9.38;;;2.83;;
66581;SDS011;53438;48.898;2.308;2024-03-25T10:01:13;8.32;;;2.83;;
66581;SDS011;53438;48.898;2.308;2024-03-25T10:03:39;6.03;;;2.50;;
66581;SDS011;53438;48.898;2.308;2024-03-25T10:06:04;6.50;;;2.75;;
66581;SDS011;53438;48.898;2.308;2024-03-25T10:08:30;9.50;;;2.70;;
66581;SDS011;53438;48.898;2.308;2024-03-25T10:10:55;9.43;;;3.07;;
66581;SDS011;53438;48.898;2.308;2024-03-25T10:13:24;4.93;;;2.17;;
66581;SDS011;53438;48.898;2.308;2024-03-25T10:15:49;8.00;;;2.90;;
66581;SDS011;53438;48.898;2.308;2024-03-25T10:18:15;8.23;;;3.03;;
66581;SDS011;53438;48.898;2.308;2024-03-25T10:23:15;8.63;;;2.60;;
66581;SDS011;53438;48.898;2.308;2024-03-25T10:25:44;11.45;;;2.83;;
66581;SDS011;53438;48.898;2.308;2024-03-25T10:28:13;10.05;;;2.47;;
66581;SDS011;53438;48.898;2.308;2024-03-25T10:30:38;4.65;;;2.13;;
66581;SDS011;53438;48.898;2.308;2024-03-25T10:33:06;5.63;;;2.10;;
66581;SDS011;53438;48.898;2.308;2024-03-25T10:35:33;15.93;;;2.88;;
66581;SDS011;53438;48.898;2.308;2024-03-25T10:38:00;4.18;;;1.98;;
66581;SDS011;53438;48.898;2.308;2024-03-25T10:40:29;4.55;;;2.30;;
66581;SDS011;53438;48.898;2.308;2024-03-25T10:43:02;7.55;;;2.20;;
66581;SDS011;53438;48.898;2.308;2024-03-25T10:45:43;7.53;;;2.00;;
66581;SDS011;53438;48.898;2.308;2024-03-25T10:48:15;5.78;;;2.05;;
66581;SDS011;53438;48.898;2.308;2024-03-25T10:50:46;11.45;;;1.88;;
66581;SDS011;53438;48.898;2.308;2024-03-25T10:53:14;9.05;;;2.90;;
66581;SDS011;53438;48.898;2.308;2024-03-25T10:55:42;5.78;;;2.00;;
66581;SDS011;53438;48.898;2.308;2024-03-25T10:58:10;3.47;;;1.47;;
66581;SDS011;53438;48.898;2.308;2024-03-25T11:00:36;4.88;;;1.83;;
66581;SDS011;53438;48.898;2.308;2024-03-25T11:03:02;8.70;;;2.78;;
66581;SDS011;53438;48.898;2.308;2024-03-25T11:05:28;4.47;;;2.20;;
66581;SDS011;53438;48.898;2.308;2024-03-25T11:07:54;5.65;;;2.08;;
66581;SDS011;53438;48.898;2.308;2024-03-25T11:10:19;6.27;;;2.50;;
66581;SDS011;53438;48.898;2.308;2024-03-25T11:12:54;3.50;;;1.35;;
66581;SDS011;53438;48.898;2.308;2024-03-25T11:15:19;5.13;;;1.40;;
66581;SDS011;53438;48.898;2.308;2024-03-25T11:17:48;5.57;;;1.60;;
66581;SDS011;53438;48.898;2.308;2024-03-25T11:20:17;5.25;;;1.58;;
66581;SDS011;53438;48.898;2.308;2024-03-25T11:22:49;6.35;;;1.85;;
66581;SDS011;53438;48.898;2.308;2024-03-25T11:25:18;6.97;;;1.50;;
66581;SDS011;53438;48.898;2.308;2024-03-25T11:27:46;5.17;;;1.70;;
66581;SDS011;53438;48.898;2.308;2024-03-25T11:30:13;2.65;;;1.40;;
66581;SDS011;53438;48.898;2.308;2024-03-25T11:32:46;5.38;;;2.10;;
66581;SDS011;53438;48.898;2.308;2024-03-25T11:35:16;5.13;;;1.50;;
66581;SDS011;53438;48.898;2.308;2024-03-25T11:37:42;9.70;;;1.67;;
66581;SDS011;53438;48.898;2.308;2024-03-25T11:40:08;4.82;;;1.17;;
66581;SDS011;53438;48.898;2.308;2024-03-25T11:42:43;4.63;;;1.48;;
66581;SDS011;53438;48.898;2.308;2024-03-25T11:45:13;5.03;;;2.30;;
66581;SDS011;53438;48.898;2.308;2024-03-25T11:47:43;4.47;;;1.48;;
66581;SDS011;53438;48.898;2.308;2024-03-25T11:50:13;3.13;;;1.35;;
66581;SDS011;53438;48.898;2.308;2024-03-25T11:52:40;4.20;;;1.60;;
66581;SDS011;53438;48.898;2.308;2024-03-25T11:55:06;2.78;;;1.25;;
66581;SDS011;53438;48.898;2.308;2024-03-25T11:57:36;3.10;;;1.13;;
66581;SDS011;53438;48.898;2.308;2024-03-25T12:00:03;3.42;;;1.20;;
66581;SDS011;53438;48.898;2.308;2024-03-25T12:02:35;5.50;;;2.13;;
66581;SDS011;53438;48.898;2.308;2024-03-25T12:05:01;5.75;;;1.17;;
66581;SDS011;53438;48.898;2.308;2024-03-25T12:07:27;5.87;;;1.53;;
66581;SDS011;53438;48.898;2.308;2024-03-25T12:09:53;5.85;;;1.85;;
66581;SDS011;53438;48.898;2.308;2024-03-25T12:12:37;4.75;;;2.13;;
66581;SDS011;53438;48.898;2.308;2024-03-25T12:15:04;3.90;;;1.90;;
66581;SDS011;53438;48.898;2.308;2024-03-25T12:17:31;7.53;;;1.58;;
66581;SDS011;53438;48.898;2.308;2024-03-25T12:20:05;5.25;;;1.45;;
66581;SDS011;53438;48.898;2.308;2024-03-25T12:22:38;2.67;;;1.20;;
66581;SDS011;53438;48.898;2.308;2024-03-25T12:25:05;4.15;;;1.30;;
66581;SDS011;53438;48.898;2.308;2024-03-25T12:27:33;5.23;;;1.63;;
66581;SDS011;53438;48.898;2.308;2024-03-25T12:30:03;2.83;;;0.93;;
66581;SDS011;53438;48.898;2.308;2024-03-25T12:34:57;3.40;;;0.90;;
66581;SDS011;53438;48.898;2.308;2024-03-25T12:37:23;3.78;;;1.00;;
66581;SDS011;53438;48.898;2.308;2024-03-25T12:39:48;3.63;;;1.27;;
66581;SDS011;53438;48.898;2.308;2024-03-25T12:42:13;3.27;;;1.43;;
66581;SDS011;53438;48.898;2.308;2024-03-25T12:44:39;5.50;;;1.10;;
66581;SDS011;53438;48.898;2.308;2024-03-25T12:47:04;3.77;;;1.10;;
66581;SDS011;53438;48.898;2.308;2024-03-25T12:49:30;6.35;;;0.95;;
66581;SDS011;53438;48.898;2.308;2024-03-25T12:51:56;3.67;;;1.50;;
66581;SDS011;53438;48.898;2.308;2024-03-25T12:54:22;4.17;;;1.23;;
66581;SDS011;53438;48.898;2.308;2024-03-25T12:56:47;3.70;;;1.50;;
66581;SDS011;53438;48.898;2.308;2024-03-25T12:59:13;4.05;;;1.13;;
66581;SDS011;53438;48.898;2.308;2024-03-25T13:01:39;5.13;;;1.40;;
66581;SDS011;53438;48.898;2.308;2024-03-25T13:04:05;4.57;;;1.40;;
66581;SDS011;53438;48.898;2.308;2024-03-25T13:06:31;2.77;;;0.80;;
66581;SDS011;53438;48.898;2.308;2024-03-25T13:08:56;5.27;;;1.43;;
66581;SDS011;53438;48.898;2.308;2024-03-25T13:11:22;4.00;;;1.23;;
66581;SDS011;53438;48.898;2.308;2024-03-25T13:13:47;3.75;;;1.42;;
66581;SDS011;53438;48.898;2.308;2024-03-25T13:16:13;6.60;;;2.70;;
66581;SDS011;53438;48.898;2.308;2024-03-25T13:18:38;4.20;;;1.17;;
66581;SDS011;53438;48.898;2.308;2024-03-25T13:21:03;4.13;;;1.20;;
66581;SDS011;53438;48.898;2.308;2024-03-25T13:23:29;2.73;;;1.10;;
66581;SDS011;53438;48.898;2.308;2024-03-25T13:25:54;4.37;;;0.97;;
66581;SDS011;53438;48.898;2.308;2024-03-25T13:28:20;2.42;;;0.80;;
66581;SDS011;53438;48.898;2.308;2024-03-25T13:30:46;5.40;;;1.10;;
66581;SDS011;53438;48.898;2.308;2024-03-25T13:33:12;4.35;;;1.48;;
66581;SDS011;53438;48.898;2.308;2024-03-25T13:35:37;4.22;;;1.45;;
66581;SDS011;53438;48.898;2.308;2024-03-25T13:38:03;1.93;;;0.93;;
66581;SDS011;53438;48.898;2.308;2024-03-25T13:40:28;4.43;;;1.00;;
66581;SDS011;53438;48.898;2.308;2024-03-25T13:42:54;5.23;;;1.03;;
66581;SDS011;53438;48.898;2.308;2024-03-25T13:45:19;2.78;;;1.02;;
66581;SDS011;53438;48.898;2.308;2024-03-25T13:47:44;3.10;;;0.80;;
66581;SDS011;53438;48.898;2.308;2024-03-25T13:50:10;4.23;;;0.63;;
66581;SDS011;53438;48.898;2.308;2024-03-25T13:52:36;3.90;;;0.70;;
66581;SDS011;53438;48.898;2.308;2024-03-25T13:55:02;4.93;;;0.70;;
66581;SDS011;53438;48.898;2.308;2024-03-25T13:57:28;1.80;;;0.70;;
66581;SDS011;53438;48.898;2.308;2024-03-25T13:59:53;1.90;;;0.80;;
66581;SDS011;53438;48.898;2.308;2024-03-25T14:02:19;2.83;;;0.70;;
66581;SDS011;53438;48.898;2.308;2024-03-25T14:04:44;4.57;;;0.77;;
66581;SDS011;53438;48.898;2.308;2024-03-25T14:07:10;2.30;;;0.75;;
66581;SDS011;53438;48.898;2.308;2024-03-25T14:09:36;2.25;;;0.88;;
66581;SDS011;53438;48.898;2.308;2024-03-25T14:12:01;3.63;;;0.77;;
66581;SDS011;53438;48.898;2.308;2024-03-25T14:14:28;5.38;;;1.13;;
66581;SDS011;53438;48.898;2.308;2024-03-25T14:16:53;3.07;;;0.83;;
66581;SDS011;53438;48.898;2.308;2024-03-25T14:19:19;3.60;;;0.80;;
66581;SDS011;53438;48.898;2.308;2024-03-25T14:21:44;3.43;;;0.70;;
66581;SDS011;53438;48.898;2.308;2024-03-25T14:24:13;3.20;;;1.08;;
66581;SDS011;53438;48.898;2.308;2024-03-25T14:26:38;3.97;;;0.90;;
66581;SDS011;53438;48.898;2.308;2024-03-25T14:29:04;3.27;;;1.13;;
66581;SDS011;53438;48.898;2.308;2024-03-25T14:31:29;6.65;;;1.23;;
66581;SDS011;53438;48.898;2.308;2024-03-25T14:33:55;5.03;;;1.10;;
66581;SDS011;53438;48.898;2.308;2024-03-25T14:36:20;2.07;;;1.00;;
66581;SDS011;53438;48.898;2.308;2024-03-25T14:38:47;4.78;;;1.20;;
66581;SDS011;53438;48.898;2.308;2024-03-25T14:41:12;4.97;;;1.10;;
66581;SDS011;53438;48.898;2.308;2024-03-25T14:43:38;7.47;;;1.50;;
66581;SDS011;53438;48.898;2.308;2024-03-25T14:46:04;5.32;;;1.67;;
66581;SDS011;53438;48.898;2.308;2024-03-25T14:48:30;3.77;;;1.30;;
66581;SDS011;53438;48.898;2.308;2024-03-25T14:50:55;4.07;;;1.83;;
66581;SDS011;53438;48.898;2.308;2024-03-25T14:53:21;4.20;;;1.42;;
66581;SDS011;53438;48.898;2.308;2024-03-25T14:55:46;4.30;;;1.40;;
66581;SDS011;53438;48.898;2.308;2024-03-25T14:58:11;4.47;;;1.20;;
66581;SDS011;53438;48.898;2.308;2024-03-25T15:00:37;3.70;;;1.40;;
66581;SDS011;53438;48.898;2.308;2024-03-25T15:03:03;5.22;;;1.52;;
66581;SDS011;53438;48.898;2.308;2024-03-25T15:05:28;3.40;;;1.10;;
66581;SDS011;53438;48.898;2.308;2024-03-25T15:07:55;5.65;;;1.40;;
66581;SDS011;53438;48.898;2.308;2024-03-25T15:10:20;4.97;;;1.50;;
66581;SDS011;53438;48.898;2.308;2024-03-25T15:12:46;5.60;;;1.50;;
66581;SDS011;53438;48.898;2.308;2024-03-25T15:15:13;4.18;;;1.67;;
66581;SDS011;53438;48.898;2.308;2024-03-25T15:17:38;4.57;;;1.50;;
66581;SDS011;53438;48.898;2.308;2024-03-25T15:20:04;11.63;;;1.87;;
66581;SDS011;53438;48.898;2.308;2024-03-25T15:22:32;5.55;;;1.65;;
66581;SDS011;53438;48.898;2.308;2024-03-25T15:24:58;4.55;;;1.60;;
66581;SDS011;53438;48.898;2.308;2024-03-25T15:27:23;4.70;;;1.35;;
66581;SDS011;53438;48.898;2.308;2024-03-25T15:29:49;4.37;;;1.43;;
66581;SDS011;53438;48.898;2.308;2024-03-25T15:32:14;4.00;;;1.83;;
66581;SDS011;53438;48.898;2.308;2024-03-25T15:34:41;3.65;;;1.75;;
66581;SDS011;53438;48.898;2.308;2024-03-25T15:37:06;3.53;;;1.40;;
66581;SDS011;53438;48.898;2.308;2024-03-25T15:39:32;6.65;;;1.55;;
66581;SDS011;53438;48.898;2.308;2024-03-25T15:41:57;3.65;;;1.15;;
66581;SDS011;53438;48.898;2.308;2024-03-25T15:44:22;3.27;;;1.20;;
66581;SDS011;53438;48.898;2.308;2024-03-25T15:46:48;3.63;;;2.00;;
66581;SDS011;53438;48.898;2.308;2024-03-25T15:49:13;2.07;;;1.33;;
66581;SDS011;53438;48.898;2.308;2024-03-25T15:51:39;4.40;;;1.47;;
66581;SDS011;53438;48.898;2.308;2024-03-25T15:54:04;5.10;;;1.58;;
66581;SDS011;53438;48.898;2.308;2024-03-25T15:56:30;3.90;;;1.70;;
66581;SDS011;53438;48.898;2.308;2024-03-25T15:58:55;4.53;;;1.73;;
66581;SDS011;53438;48.898;2.308;2024-03-25T16:01:21;3.03;;;1.33;;
66581;SDS011;53438;48.898;2.308;2024-03-25T16:03:47;3.88;;;1.60;;
66581;SDS011;53438;48.898;2.308;2024-03-25T16:06:13;4.97;;;1.90;;
66581;SDS011;53438;48.898;2.308;2024-03-25T16:08:38;4.50;;;1.30;;
66581;SDS011;53438;48.898;2.308;2024-03-25T16:11:04;4.82;;;1.50;;
66581;SDS011;53438;48.898;2.308;2024-03-25T16:13:29;3.97;;;1.60;;
66581;SDS011;53438;48.898;2.308;2024-03-25T16:16:04;5.47;;;1.53;;
66581;SDS011;53438;48.898;2.308;2024-03-25T16:18:33;3.75;;;1.67;;
66581;SDS011;53438;48.898;2.308;2024-03-25T16:21:00;4.30;;;1.90;;
66581;SDS011;53438;48.898;2.308;2024-03-25T16:23:26;6.88;;;2.03;;
66581;SDS011;53438;48.898;2.308;2024-03-25T16:25:52;6.10;;;2.10;;
66581;SDS011;53438;48.898;2.308;2024-03-25T16:28:17;5.57;;;1.40;;
66581;SDS011;53438;48.898;2.308;2024-03-25T16:30:43;6.60;;;1.90;;
66581;SDS011;53438;48.898;2.308;2024-03-25T16:33:08;3.60;;;1.47;;
66581;SDS011;53438;48.898;2.308;2024-03-25T16:35:34;6.17;;;2.03;;
66581;SDS011;53438;48.898;2.308;2024-03-25T16:37:59;4.13;;;2.20;;
66581;SDS011;53438;48.898;2.308;2024-03-25T16:40:24;3.42;;;1.27;;
66581;SDS011;53438;48.898;2.308;2024-03-25T16:42:50;2.90;;;1.60;;
66581;SDS011;53438;48.898;2.308;2024-03-25T16:45:16;6.00;;;2.17;;
66581;SDS011;53438;48.898;2.308;2024-03-25T16:47:41;3.67;;;1.55;;
66581;SDS011;53438;48.898;2.308;2024-03-25T16:50:07;5.90;;;1.50;;
66581;SDS011;53438;48.898;2.308;2024-03-25T16:52:34;6.10;;;1.88;;
66581;SDS011;53438;48.898;2.308;2024-03-25T16:55:00;3.60;;;1.20;;
66581;SDS011;53438;48.898;2.308;2024-03-25T16:57:26;12.73;;;1.50;;
66581;SDS011;53438;48.898;2.308;2024-03-25T16:59:51;2.77;;;1.80;;
66581;SDS011;53438;48.898;2.308;2024-03-25T17:02:17;5.50;;;1.50;;
66581;SDS011;53438;48.898;2.308;2024-03-25T17:04:42;4.63;;;1.43;;
66581;SDS011;53438;48.898;2.308;2024-03-25T17:07:08;4.40;;;1.30;;
66581;SDS011;53438;48.898;2.308;2024-03-25T17:09:33;2.60;;;1.10;;
66581;SDS011;53438;48.898;2.308;2024-03-25T17:11:59;3.15;;;1.25;;
66581;SDS011;53438;48.898;2.308;2024-03-25T17:14:24;4.72;;;1.52;;
66581;SDS011;53438;48.898;2.308;2024-03-25T17:16:50;3.97;;;1.30;;
66581;SDS011;53438;48.898;2.308;2024-03-25T17:19:15;4.30;;;1.83;;
66581;SDS011;53438;48.898;2.308;2024-03-25T17:21:41;4.65;;;1.38;;
66581;SDS011;53438;48.898;2.308;2024-03-25T17:24:07;5.07;;;1.43;;
66581;SDS011;53438;48.898;2.308;2024-03-25T17:26:33;4.47;;;1.60;;
66581;SDS011;53438;48.898;2.308;2024-03-25T17:28:59;2.72;;;1.52;;
66581;SDS011;53438;48.898;2.308;2024-03-25T17:31:25;4.03;;;1.70;;
66581;SDS011;53438;48.898;2.308;2024-03-25T17:33:51;3.13;;;1.47;;
66581;SDS011;53438;48.898;2.308;2024-03-25T17:36:17;6.25;;;1.60;;
66581;SDS011;53438;48.898;2.308;2024-03-25T17:38:42;4.90;;;2.10;;
66581;SDS011;53438;48.898;2.308;2024-03-25T17:41:07;4.03;;;1.30;;
66581;SDS011;53438;48.898;2.308;2024-03-25T17:43:35;3.97;;;1.27;;
66581;SDS011;53438;48.898;2.308;2024-03-25T17:46:02;2.55;;;0.90;;